createdAt,value
2019-04-26T00:01:47.365Z,1.33
2019-04-26T00:04:14.331Z,1.30
2019-04-26T00:06:40.919Z,1.33
2019-04-26T00:09:15.905Z,1.50
2019-04-26T00:11:50.356Z,1.40
2019-04-26T00:14:35.449Z,1.67
2019-04-26T00:17:13.365Z,1.50
2019-04-26T00:19:40.347Z,1.30
2019-04-26T00:22:07.360Z,1.47
2019-04-26T00:24:34.230Z,1.30
2019-04-26T00:27:00.991Z,1.50
2019-04-26T00:29:27.330Z,1.30
2019-04-26T00:31:53.960Z,1.57
2019-04-26T00:34:21.644Z,1.50
2019-04-26T00:36:48.122Z,1.63
2019-04-26T00:39:14.799Z,1.73
2019-04-26T00:41:41.956Z,1.63
2019-04-26T00:44:08.564Z,1.60
2019-04-26T00:46:36.105Z,1.60
2019-04-26T00:49:03.611Z,1.53
2019-04-26T00:51:31.140Z,1.60
2019-04-26T00:53:57.950Z,1.77
2019-04-26T00:56:24.909Z,1.77
2019-04-26T00:58:52.229Z,1.80
2019-04-26T01:01:20.754Z,1.77
2019-04-26T01:03:47.392Z,1.77
2019-04-26T01:06:16.975Z,1.70
2019-04-26T01:08:43.653Z,1.70
2019-04-26T01:11:10.205Z,1.80
2019-04-26T01:13:36.716Z,1.80
2019-04-26T01:16:03.454Z,1.63
2019-04-26T01:18:30.471Z,2.00
2019-04-26T01:21:01.446Z,1.67
2019-04-26T01:23:31.974Z,1.60
2019-04-26T01:26:11.467Z,1.80
2019-04-26T01:28:55.711Z,2.00
2019-04-26T01:31:26.090Z,1.83
2019-04-26T01:33:52.975Z,2.07
2019-04-26T01:36:22.290Z,2.30
2019-04-26T01:38:54.408Z,2.57
2019-04-26T01:41:43.945Z,2.23
2019-04-26T01:44:15.105Z,2.40
2019-04-26T01:46:44.284Z,2.37
2019-04-26T01:49:12.528Z,2.37
2019-04-26T01:52:02.573Z,2.40
2019-04-26T01:54:34.596Z,2.60
2019-04-26T01:57:03.886Z,2.70
2019-04-26T01:59:31.984Z,2.30
2019-04-26T02:02:03.192Z,2.30
2019-04-26T02:04:32.088Z,2.37
2019-04-26T02:06:59.981Z,2.50
2019-04-26T02:09:26.701Z,2.20
2019-04-26T02:11:53.237Z,2.20
2019-04-26T02:14:20.145Z,2.00
2019-04-26T02:16:46.935Z,2.30
2019-04-26T02:19:13.556Z,2.30
2019-04-26T02:21:45.465Z,2.30
2019-04-26T02:24:14.391Z,2.13
2019-04-26T02:26:44.624Z,2.17
2019-04-26T02:29:19.430Z,2.40
2019-04-26T02:31:51.396Z,2.40
2019-04-26T02:34:18.066Z,2.50
2019-04-26T02:36:57.050Z,2.30
2019-04-26T02:39:17.914Z,2.10
2019-04-26T02:41:46.713Z,2.20
2019-04-26T02:44:16.560Z,2.37
2019-04-26T02:46:49.150Z,2.40
2019-04-26T02:49:24.677Z,2.27
2019-04-26T02:52:27.886Z,2.00
2019-04-26T02:55:36.968Z,2.07
2019-04-26T02:58:02.262Z,1.87
2019-04-26T03:00:30.173Z,2.10
2019-04-26T03:03:02.906Z,1.90
2019-04-26T03:05:35.748Z,2.40
2019-04-26T03:08:08.497Z,2.13
2019-04-26T03:10:40.593Z,2.07
2019-04-26T03:13:14.407Z,2.10
2019-04-26T03:15:48.381Z,1.93
2019-04-26T03:18:28.032Z,2.33
2019-04-26T03:21:32.688Z,2.00
2019-04-26T03:24:10.464Z,1.90
2019-04-26T03:26:51.315Z,2.30
2019-04-26T03:29:37.477Z,2.70
2019-04-26T03:32:29.000Z,2.13
2019-04-26T03:35:24.567Z,1.83
2019-04-26T03:38:01.504Z,2.20
2019-04-26T03:40:47.629Z,2.20
2019-04-26T03:43:38.129Z,2.20
2019-04-26T03:46:22.531Z,2.37
2019-04-26T03:49:06.622Z,2.60
2019-04-26T03:51:39.694Z,2.37
2019-04-26T03:54:24.423Z,2.30
2019-04-26T03:57:13.938Z,2.53
2019-04-26T03:59:50.586Z,2.53
2019-04-26T04:02:37.440Z,2.53
2019-04-26T04:05:26.372Z,2.83
2019-04-26T04:07:56.586Z,2.80
2019-04-26T04:10:39.562Z,2.90
2019-04-26T04:13:22.471Z,3.20
2019-04-26T04:15:51.578Z,3.13
2019-04-26T04:18:29.808Z,3.30
2019-04-26T04:21:33.687Z,3.10
2019-04-26T04:24:07.541Z,3.80
2019-04-26T04:27:03.572Z,3.77
2019-04-26T04:29:50.515Z,3.63
2019-04-26T04:32:27.383Z,3.60
2019-04-26T04:34:58.484Z,3.80
2019-04-26T04:37:30.471Z,3.77
2019-04-26T04:40:16.210Z,3.87
2019-04-26T04:43:04.970Z,4.03
2019-04-26T04:45:55.722Z,3.53
2019-04-26T04:48:53.458Z,4.13
2019-04-26T04:51:44.885Z,3.57
2019-04-26T04:54:38.603Z,4.00
2019-04-26T04:57:37.126Z,3.70
2019-04-26T05:00:12.934Z,3.83
2019-04-26T05:02:55.295Z,3.70
2019-04-26T05:05:46.932Z,6.37
2019-04-26T05:08:44.425Z,3.33
2019-04-26T05:11:19.786Z,4.00
2019-04-26T05:13:57.566Z,4.10
2019-04-26T05:16:53.021Z,4.17
2019-04-26T05:19:44.229Z,4.20
2019-04-26T05:22:51.188Z,3.60
2019-04-26T05:26:09.240Z,3.60
2019-04-26T05:29:20.761Z,4.40
2019-04-26T05:32:10.605Z,11.27
2019-04-26T05:35:10.021Z,4.27
2019-04-26T05:38:00.195Z,3.90
2019-04-26T05:40:44.229Z,3.80
2019-04-26T05:43:36.235Z,4.30
2019-04-26T05:46:25.671Z,4.40
2019-04-26T05:49:20.357Z,5.23
2019-04-26T05:52:25.369Z,4.33
2019-04-26T05:55:10.991Z,6.10
2019-04-26T05:58:02.973Z,4.87
2019-04-26T06:01:23.689Z,3.93
2019-04-26T06:04:12.020Z,4.60
2019-04-26T06:06:55.123Z,4.50
2019-04-26T06:10:04.854Z,4.17
2019-04-26T06:12:54.533Z,4.33
2019-04-26T06:15:52.863Z,4.27
2019-04-26T06:18:38.616Z,4.20
2019-04-26T06:21:34.477Z,4.97
2019-04-26T06:24:24.612Z,4.60
2019-04-26T06:27:14.142Z,4.03
2019-04-26T06:29:44.168Z,4.20
2019-04-26T06:32:30.939Z,4.37
2019-04-26T06:35:22.166Z,6.07
2019-04-26T06:38:25.058Z,4.70
2019-04-26T06:41:21.949Z,4.57
2019-04-26T06:43:56.499Z,4.90
2019-04-26T06:47:08.018Z,5.03
2019-04-26T06:49:50.704Z,4.77
2019-04-26T06:52:22.846Z,4.97
2019-04-26T06:55:17.988Z,4.93
2019-04-26T06:58:09.707Z,4.83
2019-04-26T07:00:55.283Z,4.77
2019-04-26T07:03:30.099Z,4.80
2019-04-26T07:06:02.486Z,5.00
2019-04-26T07:08:40.405Z,5.17
2019-04-26T07:11:52.853Z,5.30
2019-04-26T07:15:02.276Z,5.47
2019-04-26T07:18:08.692Z,5.30
2019-04-26T07:21:07.167Z,5.30
2019-04-26T07:23:50.437Z,5.90
2019-04-26T07:26:37.800Z,5.60
2019-04-26T07:29:29.599Z,5.60
2019-04-26T07:32:10.072Z,4.97
2019-04-26T07:35:07.016Z,5.60
2019-04-26T07:38:09.150Z,5.03
2019-04-26T07:41:13.031Z,6.07
2019-04-26T07:44:33.610Z,6.53
2019-04-26T07:47:38.898Z,5.33
2019-04-26T07:50:38.060Z,5.53
2019-04-26T07:53:37.262Z,5.07
2019-04-26T07:56:18.283Z,7.03
2019-04-26T07:59:22.200Z,5.60
2019-04-26T08:02:18.840Z,5.13
2019-04-26T08:05:05.854Z,5.30
2019-04-26T08:07:43.320Z,5.30
2019-04-26T08:10:18.422Z,5.40
2019-04-26T08:12:53.242Z,5.23
2019-04-26T08:15:47.880Z,5.57
2019-04-26T08:18:27.798Z,5.20
2019-04-26T08:21:02.493Z,5.77
2019-04-26T08:23:42.227Z,4.80
2019-04-26T08:26:09.068Z,5.10
2019-04-26T08:28:39.640Z,5.20
2019-04-26T08:31:11.031Z,5.53
2019-04-26T08:33:48.437Z,5.80
2019-04-26T08:36:16.218Z,5.40
2019-04-26T08:38:44.562Z,5.60
2019-04-26T08:41:11.966Z,5.70
2019-04-26T08:43:41.396Z,5.13
2019-04-26T08:46:32.264Z,6.37
2019-04-26T08:49:06.658Z,5.70
2019-04-26T08:51:37.509Z,5.63
2019-04-26T08:54:07.693Z,6.67
2019-04-26T08:56:42.272Z,5.13
2019-04-26T08:59:26.135Z,6.17
2019-04-26T09:02:12.224Z,6.03
2019-04-26T09:04:48.431Z,7.63
2019-04-26T09:07:22.381Z,7.97
2019-04-26T09:09:57.409Z,8.97
2019-04-26T09:12:26.917Z,9.10
2019-04-26T09:14:59.039Z,9.57
2019-04-26T09:17:27.680Z,11.00
2019-04-26T09:19:54.237Z,13.50
2019-04-26T09:22:28.372Z,16.20
2019-04-26T09:24:59.283Z,16.93
2019-04-26T09:27:29.950Z,15.30
2019-04-26T09:30:00.581Z,15.77
2019-04-26T09:32:29.391Z,15.47
2019-04-26T09:34:56.047Z,16.13
2019-04-26T09:37:23.112Z,16.60
2019-04-26T09:39:49.815Z,18.03
2019-04-26T09:42:39.313Z,16.70
2019-04-26T09:45:24.172Z,17.83
2019-04-26T09:48:04.877Z,18.73
2019-04-26T09:50:33.272Z,17.97
2019-04-26T09:53:00.068Z,18.63
2019-04-26T09:55:35.305Z,17.43
2019-04-26T09:57:57.021Z,13.50
2019-04-26T10:00:30.483Z,11.77
2019-04-26T10:02:57.947Z,11.77
2019-04-26T10:05:24.884Z,10.37
2019-04-26T10:07:51.496Z,8.63
2019-04-26T10:10:23.135Z,7.30
2019-04-26T10:13:05.407Z,6.90
2019-04-26T10:15:38.960Z,6.17
2019-04-26T10:18:07.988Z,5.40
2019-04-26T10:20:33.853Z,5.73
2019-04-26T10:23:00.464Z,5.63
2019-04-26T10:25:27.144Z,5.30
2019-04-26T10:27:53.768Z,6.23
2019-04-26T10:30:20.523Z,5.33
2019-04-26T10:32:47.186Z,6.50
2019-04-26T10:35:17.442Z,6.13
2019-04-26T10:37:43.905Z,5.87
2019-04-26T10:40:11.705Z,5.90
2019-04-26T10:42:38.395Z,6.17
2019-04-26T10:45:10.352Z,5.60
2019-04-26T10:47:38.386Z,5.33
2019-04-26T10:50:08.954Z,5.70
2019-04-26T10:52:55.556Z,5.70
2019-04-26T10:55:42.176Z,5.67
2019-04-26T10:58:10.834Z,6.03
2019-04-26T11:00:40.898Z,5.50
2019-04-26T11:03:07.727Z,5.80
2019-04-26T11:05:34.393Z,6.90
2019-04-26T11:08:00.967Z,5.43
2019-04-26T11:10:28.998Z,6.00
2019-04-26T11:12:55.520Z,7.20
2019-04-26T11:15:22.204Z,5.70
2019-04-26T11:17:49.954Z,5.60
2019-04-26T11:20:16.910Z,6.47
2019-04-26T11:22:43.646Z,6.17
2019-04-26T11:25:10.266Z,6.67
2019-04-26T11:27:40.237Z,5.93
2019-04-26T11:30:11.594Z,5.40
2019-04-26T11:32:36.834Z,5.60
2019-04-26T11:35:04.891Z,6.63
2019-04-26T11:37:31.468Z,6.00
2019-04-26T11:39:58.004Z,6.00
2019-04-26T11:42:24.479Z,5.50
2019-04-26T11:44:51.104Z,5.73
2019-04-26T11:47:17.619Z,5.47
2019-04-26T11:49:44.237Z,5.70
2019-04-26T11:52:10.805Z,4.90
2019-04-26T11:54:37.355Z,5.00
2019-04-26T11:57:04.012Z,5.13
2019-04-26T11:59:31.803Z,5.20
2019-04-26T12:01:58.701Z,5.20
2019-04-26T12:04:27.147Z,5.20
2019-04-26T12:07:10.978Z,4.90
2019-04-26T12:09:39.559Z,4.83
2019-04-26T12:12:09.092Z,5.23
2019-04-26T12:14:35.505Z,4.87
2019-04-26T12:17:03.432Z,5.07
2019-04-26T12:19:29.964Z,4.97
2019-04-26T12:21:56.760Z,4.77
2019-04-26T12:24:25.407Z,4.67
2019-04-26T12:26:55.477Z,4.40
2019-04-26T12:29:20.503Z,4.67
2019-04-26T12:31:47.305Z,4.60
2019-04-26T12:34:17.613Z,4.20
2019-04-26T12:36:42.687Z,4.87
2019-04-26T12:39:11.266Z,4.93
2019-04-26T12:41:40.655Z,4.27
2019-04-26T12:44:07.311Z,4.43
2019-04-26T12:46:44.877Z,4.37
2019-04-26T12:49:20.278Z,4.80
2019-04-26T12:51:47.435Z,5.13
2019-04-26T12:54:14.036Z,5.23
2019-04-26T12:56:40.508Z,5.50
2019-04-26T12:59:07.192Z,6.03
2019-04-26T13:01:33.942Z,5.47
2019-04-26T13:04:04.646Z,5.00
2019-04-26T13:06:34.194Z,5.60
2019-04-26T13:09:00.714Z,5.73
2019-04-26T13:11:35.093Z,6.00
2019-04-26T13:14:06.382Z,5.77
2019-04-26T13:16:34.826Z,5.80
2019-04-26T13:19:01.514Z,5.67
2019-04-26T13:21:28.037Z,5.70
2019-04-26T13:23:54.553Z,5.30
2019-04-26T13:26:21.087Z,5.77
2019-04-26T13:28:47.995Z,5.93
2019-04-26T13:31:14.594Z,6.00
2019-04-26T13:33:41.227Z,6.30
2019-04-26T13:36:08.000Z,6.33
2019-04-26T13:38:34.808Z,4.93
2019-04-26T13:41:04.757Z,5.40
2019-04-26T13:43:29.969Z,5.23
2019-04-26T13:46:10.586Z,4.47
2019-04-26T13:48:54.100Z,4.30
2019-04-26T13:51:22.585Z,4.60
2019-04-26T13:53:49.302Z,3.90
2019-04-26T13:56:18.849Z,4.47
2019-04-26T13:58:45.415Z,3.67
2019-04-26T14:01:14.580Z,5.10
2019-04-26T14:03:41.173Z,4.20
2019-04-26T14:06:07.849Z,4.37
2019-04-26T14:08:34.463Z,3.73
2019-04-26T14:11:01.282Z,4.10
2019-04-26T14:13:28.136Z,3.80
2019-04-26T14:15:54.682Z,3.77
2019-04-26T14:18:21.363Z,4.53
2019-04-26T14:20:48.382Z,4.27
2019-04-26T14:23:33.713Z,5.00
2019-04-26T14:26:05.151Z,3.90
2019-04-26T14:28:30.836Z,4.33
2019-04-26T14:30:57.558Z,3.73
2019-04-26T14:33:27.131Z,3.63
2019-04-26T14:35:52.695Z,4.60
2019-04-26T14:38:27.751Z,4.23
2019-04-26T14:40:47.898Z,3.90
2019-04-26T14:43:18.318Z,3.77
2019-04-26T14:45:55.374Z,4.20
2019-04-26T14:48:20.462Z,5.27
2019-04-26T14:50:41.092Z,5.20
2019-04-26T14:53:07.698Z,4.90
2019-04-26T14:55:34.513Z,4.23
2019-04-26T14:58:02.059Z,4.43
2019-04-26T15:00:34.008Z,4.57
2019-04-26T15:03:05.500Z,4.33
2019-04-26T15:05:49.380Z,4.33
2019-04-26T15:08:16.082Z,4.50
2019-04-26T15:10:48.803Z,4.60
2019-04-26T15:13:19.991Z,4.73
2019-04-26T15:15:43.411Z,4.57
2019-04-26T15:18:12.292Z,4.60
2019-04-26T15:20:38.910Z,4.50
2019-04-26T15:23:05.693Z,3.87
2019-04-26T15:25:33.590Z,4.73
2019-04-26T15:28:02.331Z,4.37
2019-04-26T15:30:29.100Z,3.40
2019-04-26T15:32:55.719Z,3.53
2019-04-26T15:35:23.249Z,4.83
2019-04-26T15:37:49.950Z,4.33
2019-04-26T15:40:31.914Z,3.43
2019-04-26T15:43:04.812Z,3.67
2019-04-26T15:45:48.570Z,4.03
2019-04-26T15:48:23.042Z,3.73
2019-04-26T15:50:53.584Z,3.80
2019-04-26T15:53:22.079Z,4.40
2019-04-26T15:55:49.007Z,4.20
2019-04-26T15:58:15.829Z,3.60
2019-04-26T16:00:42.871Z,4.27
2019-04-26T16:03:09.636Z,3.80
2019-04-26T16:05:36.300Z,3.87
2019-04-26T16:08:04.568Z,4.13
2019-04-26T16:10:34.628Z,3.77
2019-04-26T16:13:15.724Z,3.80
2019-04-26T16:15:28.770Z,3.47
2019-04-26T16:17:55.486Z,3.40
2019-04-26T16:20:22.201Z,3.37
2019-04-26T16:22:49.331Z,3.73
2019-04-26T16:25:16.115Z,3.87
2019-04-26T16:27:43.091Z,4.17
2019-04-26T16:30:32.610Z,4.17
2019-04-26T16:33:13.471Z,4.00
2019-04-26T16:35:40.176Z,4.13
2019-04-26T16:38:25.275Z,4.00
2019-04-26T16:40:53.533Z,4.00
2019-04-26T16:43:34.794Z,4.30
2019-04-26T16:45:49.194Z,4.27
2019-04-26T16:48:17.345Z,3.80
2019-04-26T16:50:46.199Z,4.57
2019-04-26T16:53:36.181Z,5.30
2019-04-26T16:55:49.173Z,6.13
2019-04-26T16:58:09.721Z,5.03
2019-04-26T17:00:50.076Z,6.23
2019-04-26T17:03:08.040Z,6.10
2019-04-26T17:05:47.134Z,5.30
2019-04-26T17:08:05.131Z,5.30
2019-04-26T17:10:30.741Z,5.63
2019-04-26T17:12:57.252Z,5.77
2019-04-26T17:15:24.437Z,5.33
2019-04-26T17:17:52.674Z,5.07
2019-04-26T17:20:19.581Z,4.93
2019-04-26T17:22:56.982Z,4.10
2019-04-26T17:25:24.431Z,5.00
2019-04-26T17:27:50.221Z,4.30
2019-04-26T17:30:18.754Z,4.77
2019-04-26T17:32:47.461Z,4.33
2019-04-26T17:35:13.834Z,4.13
2019-04-26T17:37:41.128Z,4.20
2019-04-26T17:40:08.337Z,4.07
2019-04-26T17:42:36.342Z,3.90
2019-04-26T17:45:07.138Z,3.90
2019-04-26T17:47:36.731Z,4.07
2019-04-26T17:50:06.397Z,3.43
2019-04-26T17:52:36.120Z,3.60
2019-04-26T17:55:02.083Z,3.93
2019-04-26T17:57:34.679Z,3.50
2019-04-26T18:00:07.237Z,3.33
2019-04-26T18:02:41.177Z,3.67
2019-04-26T18:05:00.546Z,3.97
2019-04-26T18:07:39.713Z,3.13
2019-04-26T18:09:52.525Z,3.63
2019-04-26T18:12:20.635Z,3.43
2019-04-26T18:14:47.631Z,4.13
2019-04-26T18:17:23.183Z,4.00
2019-04-26T18:19:55.552Z,4.17
2019-04-26T18:22:24.029Z,4.23
2019-04-26T18:24:50.727Z,3.13
2019-04-26T18:27:17.507Z,3.67
2019-04-26T18:29:44.163Z,5.57
2019-04-26T18:32:12.862Z,6.03
2019-04-26T18:34:40.580Z,6.10
2019-04-26T18:37:07.706Z,6.70
2019-04-26T18:39:34.372Z,6.77
2019-04-26T18:42:02.888Z,6.80
2019-04-26T18:44:38.433Z,5.97
2019-04-26T18:47:06.055Z,6.30
2019-04-26T18:49:32.961Z,6.27
2019-04-26T18:52:00.130Z,6.57
2019-04-26T18:54:28.756Z,8.90
2019-04-26T18:56:57.275Z,78.40
2019-04-26T18:59:24.521Z,25.63
2019-04-26T19:01:53.488Z,10.40
2019-04-26T19:04:20.944Z,7.90
2019-04-26T19:06:48.389Z,7.53
2019-04-26T19:09:17.128Z,7.57
2019-04-26T19:11:48.462Z,6.97
2019-04-26T19:14:17.112Z,8.53
2019-04-26T19:16:59.340Z,7.90
2019-04-26T19:19:34.567Z,8.00
2019-04-26T19:22:03.501Z,11.27
2019-04-26T19:24:30.348Z,8.80
2019-04-26T19:26:57.477Z,8.73
2019-04-26T19:29:32.834Z,10.97
2019-04-26T19:31:56.606Z,49.17
2019-04-26T19:34:26.087Z,37.50
2019-04-26T19:36:52.540Z,13.53
2019-04-26T19:39:22.833Z,9.10
2019-04-26T19:41:53.427Z,8.13
2019-04-26T19:44:18.932Z,7.73
2019-04-26T19:47:06.670Z,8.43
2019-04-26T19:49:54.115Z,7.37
2019-04-26T19:52:33.681Z,7.93
2019-04-26T19:55:07.304Z,7.30
2019-04-26T19:57:39.301Z,9.10
2019-04-26T20:00:09.317Z,7.43
2019-04-26T20:02:39.170Z,7.13
2019-04-26T20:05:06.704Z,7.70
2019-04-26T20:07:34.107Z,7.77
2019-04-26T20:10:04.925Z,7.43
2019-04-26T20:12:35.295Z,7.10
2019-04-26T20:14:58.556Z,7.23
2019-04-26T20:17:25.834Z,10.30
2019-04-26T20:19:54.464Z,15.57
2019-04-26T20:22:28.090Z,10.43
2019-04-26T20:24:53.884Z,8.83
2019-04-26T20:27:20.850Z,8.77
2019-04-26T20:29:49.384Z,8.50
2019-04-26T20:32:23.998Z,7.63
2019-04-26T20:35:04.963Z,7.60
2019-04-26T20:37:32.210Z,7.03
2019-04-26T20:40:16.273Z,6.80
2019-04-26T20:42:27.747Z,6.47
2019-04-26T20:44:54.634Z,6.33
2019-04-26T20:47:21.743Z,6.67
2019-04-26T20:49:55.016Z,8.13
2019-04-26T20:52:22.423Z,8.20
2019-04-26T20:54:46.601Z,6.73
2019-04-26T20:57:14.369Z,6.53
2019-04-26T20:59:41.625Z,6.20
2019-04-26T21:02:09.591Z,6.30
2019-04-26T21:04:38.486Z,6.50
2019-04-26T21:07:06.798Z,6.00
2019-04-26T21:09:36.409Z,6.83
2019-04-26T21:12:02.010Z,7.67
2019-04-26T21:14:29.449Z,7.37
2019-04-26T21:16:56.274Z,6.00
2019-04-26T21:19:23.008Z,5.90
2019-04-26T21:21:50.467Z,7.47
2019-04-26T21:24:21.379Z,7.43
2019-04-26T21:26:55.434Z,7.37
2019-04-26T21:29:29.852Z,6.83
2019-04-26T21:32:10.104Z,7.80
2019-04-26T21:34:38.684Z,6.63
2019-04-26T21:37:23.714Z,6.50
2019-04-26T21:39:53.245Z,6.30
2019-04-26T21:42:21.037Z,6.30
2019-04-26T21:44:52.655Z,6.23
2019-04-26T21:47:17.342Z,6.13
2019-04-26T21:49:44.106Z,6.13
2019-04-26T21:52:13.622Z,6.17
2019-04-26T21:54:40.500Z,6.57
2019-04-26T21:57:07.153Z,7.23
2019-04-26T21:59:40.719Z,7.80
2019-04-26T22:02:03.388Z,6.93
2019-04-26T22:04:34.183Z,6.27
2019-04-26T22:07:00.004Z,6.90
2019-04-26T22:09:35.057Z,6.60
2019-04-26T22:11:57.859Z,6.33
2019-04-26T22:14:29.265Z,6.50
2019-04-26T22:17:05.365Z,6.07
2019-04-26T22:19:35.367Z,6.00
2019-04-26T22:22:23.197Z,5.50
2019-04-26T22:24:53.123Z,5.30
2019-04-26T22:27:21.757Z,6.13
2019-04-26T22:29:51.937Z,5.30
2019-04-26T22:32:19.088Z,5.17
2019-04-26T22:34:46.369Z,5.80
2019-04-26T22:37:14.819Z,6.23
2019-04-26T22:39:41.364Z,5.90
2019-04-26T22:42:08.520Z,5.00
2019-04-26T22:44:39.599Z,5.47
2019-04-26T22:47:08.076Z,5.20
2019-04-26T22:49:41.518Z,5.03
2019-04-26T22:52:06.471Z,4.80
2019-04-26T22:54:33.376Z,5.57
2019-04-26T22:57:00.249Z,4.50
2019-04-26T22:59:26.757Z,4.27
2019-04-26T23:01:53.780Z,4.80
2019-04-26T23:04:23.690Z,4.77
2019-04-26T23:06:49.266Z,4.83
2019-04-26T23:09:17.074Z,4.27
2019-04-26T23:11:46.739Z,4.07
2019-04-26T23:14:17.739Z,4.83
2019-04-26T23:17:01.460Z,4.23
2019-04-26T23:19:33.463Z,4.13
2019-04-26T23:22:00.495Z,3.57
2019-04-26T23:24:27.157Z,3.97
2019-04-26T23:26:54.163Z,3.93
2019-04-26T23:29:20.580Z,3.50
2019-04-26T23:31:47.019Z,3.67
2019-04-26T23:34:14.303Z,3.53
2019-04-26T23:36:40.945Z,3.30
2019-04-26T23:39:11.666Z,3.70
2019-04-26T23:41:37.647Z,3.57
2019-04-26T23:44:06.578Z,3.13
2019-04-26T23:46:33.126Z,2.90
2019-04-26T23:48:59.505Z,2.93
2019-04-26T23:51:26.171Z,3.10
2019-04-26T23:53:55.001Z,3.13
2019-04-26T23:56:24.676Z,3.03
2019-04-26T23:58:49.786Z,3.33
